createdAt,value
2016-03-07T00:00:48.235Z,988.55
2016-03-07T00:01:48.252Z,988.57
2016-03-07T00:02:48.272Z,988.57
2016-03-07T00:03:48.290Z,988.55
2016-03-07T00:04:48.308Z,988.54
2016-03-07T00:05:48.310Z,988.58
2016-03-07T00:06:48.329Z,988.6
2016-03-07T00:07:48.348Z,988.61
2016-03-07T00:08:48.365Z,988.62
2016-03-07T00:09:48.384Z,988.62
2016-03-07T00:10:48.402Z,988.59
2016-03-07T00:11:48.421Z,988.61
2016-03-07T00:12:48.424Z,988.62
2016-03-07T00:13:48.457Z,988.65
2016-03-07T00:14:48.459Z,988.65
2016-03-07T00:15:48.479Z,988.61
2016-03-07T00:16:48.497Z,988.63
2016-03-07T00:17:48.514Z,988.69
2016-03-07T00:18:48.534Z,988.68
2016-03-07T00:19:48.551Z,988.63
2016-03-07T00:20:48.554Z,988.62
2016-03-07T00:21:48.573Z,988.58
2016-03-07T00:22:48.591Z,988.57
2016-03-07T00:23:48.608Z,988.59
2016-03-07T00:24:48.628Z,988.61
2016-03-07T00:25:48.646Z,988.61
2016-03-07T00:26:48.663Z,988.59
2016-03-07T00:27:48.666Z,988.56
2016-03-07T00:28:48.700Z,988.61
2016-03-07T00:29:48.703Z,988.58
2016-03-07T00:30:48.722Z,988.56
2016-03-07T00:31:48.740Z,988.57
2016-03-07T00:32:48.758Z,988.55
2016-03-07T00:33:48.777Z,988.58
2016-03-07T00:34:48.796Z,988.57
2016-03-07T00:35:48.813Z,988.57
2016-03-07T00:36:48.831Z,988.57
2016-03-07T00:37:48.835Z,988.58
2016-03-07T00:38:48.852Z,988.57
2016-03-07T00:39:48.887Z,988.55
2016-03-07T00:40:48.890Z,988.59
2016-03-07T00:41:48.907Z,988.57
2016-03-07T00:42:48.926Z,988.61
2016-03-07T00:43:48.945Z,988.6
2016-03-07T00:44:48.962Z,988.64
2016-03-07T00:45:48.964Z,988.64
2016-03-07T00:46:48.984Z,988.61
2016-03-07T00:47:49.001Z,988.61
2016-03-07T00:48:49.020Z,988.61
2016-03-07T00:49:49.039Z,988.56
2016-03-07T00:50:49.041Z,988.55
2016-03-07T00:51:49.059Z,988.56
2016-03-07T00:52:49.078Z,988.61
2016-03-07T00:53:49.096Z,988.61
2016-03-07T00:54:49.114Z,988.59
2016-03-07T00:55:49.133Z,988.59
2016-03-07T00:56:49.150Z,988.57
2016-03-07T00:57:49.169Z,988.57
2016-03-07T00:58:49.188Z,988.55
2016-03-07T00:59:49.191Z,988.61
2016-03-07T01:00:49.208Z,988.58
2016-03-07T01:01:49.227Z,988.58
2016-03-07T01:02:49.246Z,988.57
2016-03-07T01:03:49.263Z,988.58
2016-03-07T01:04:49.282Z,988.59
2016-03-07T01:05:49.285Z,988.58
2016-03-07T01:06:49.302Z,988.56
2016-03-07T01:07:49.322Z,988.55
2016-03-07T01:08:49.340Z,988.54
2016-03-07T01:09:49.357Z,988.54
2016-03-07T01:10:49.376Z,988.54
2016-03-07T01:11:49.395Z,988.54
2016-03-07T01:12:49.412Z,988.56
2016-03-07T01:13:49.415Z,988.58
2016-03-07T01:14:49.434Z,988.58
2016-03-07T01:15:49.451Z,988.55
2016-03-07T01:16:49.471Z,988.56
2016-03-07T01:17:49.489Z,988.54
2016-03-07T01:18:49.507Z,988.54
2016-03-07T01:19:49.509Z,988.52
2016-03-07T01:20:49.544Z,988.5
2016-03-07T01:21:49.547Z,988.5
2016-03-07T01:22:49.580Z,988.48
2016-03-07T01:23:49.583Z,988.54
2016-03-07T01:24:49.601Z,988.49
2016-03-07T01:25:49.620Z,988.46
2016-03-07T01:26:49.639Z,988.49
2016-03-07T01:27:49.656Z,988.48
2016-03-07T01:28:49.658Z,988.5
2016-03-07T01:29:49.678Z,988.47
2016-03-07T01:30:49.696Z,988.51
2016-03-07T01:31:49.713Z,988.52
2016-03-07T01:32:49.732Z,988.48
2016-03-07T01:33:49.750Z,988.45
2016-03-07T01:34:49.752Z,988.48
2016-03-07T01:35:49.788Z,988.45
2016-03-07T01:36:49.790Z,988.44
2016-03-07T01:37:49.807Z,988.48
2016-03-07T01:38:49.827Z,988.48
2016-03-07T01:39:49.845Z,988.52
2016-03-07T01:40:49.863Z,988.5
2016-03-07T01:41:49.881Z,988.53
2016-03-07T01:42:49.884Z,988.51
2016-03-07T01:43:49.902Z,988.52
2016-03-07T01:44:49.921Z,988.55
2016-03-07T01:45:49.939Z,988.52
2016-03-07T01:46:49.957Z,988.54
2016-03-07T01:47:49.976Z,988.51
2016-03-07T01:48:49.994Z,988.51
2016-03-07T01:49:50.012Z,988.54
2016-03-07T01:50:50.030Z,988.53
2016-03-07T01:51:50.034Z,988.53
2016-03-07T01:52:50.051Z,988.5
2016-03-07T01:53:50.070Z,988.54
2016-03-07T01:54:50.089Z,988.55
2016-03-07T01:55:50.106Z,988.55
2016-03-07T01:56:50.125Z,988.55
2016-03-07T01:57:50.144Z,988.58
2016-03-07T01:58:50.146Z,988.62
2016-03-07T01:59:50.163Z,988.59
2016-03-07T02:00:50.183Z,988.6
2016-03-07T02:01:50.200Z,988.56
2016-03-07T02:02:50.219Z,988.61
2016-03-07T02:03:50.238Z,988.58
2016-03-07T02:04:50.255Z,988.59
2016-03-07T02:05:50.258Z,988.55
2016-03-07T02:06:50.277Z,988.58
2016-03-07T02:07:50.295Z,988.56
2016-03-07T02:08:50.313Z,988.54
2016-03-07T02:09:50.347Z,988.55
2016-03-07T02:10:50.350Z,988.55
2016-03-07T02:11:50.368Z,988.55
2016-03-07T02:12:50.387Z,988.55
2016-03-07T02:13:50.405Z,988.6
2016-03-07T02:14:50.407Z,988.56
2016-03-07T02:15:50.426Z,988.55
2016-03-07T02:29:09.915Z,988.69
2016-03-07T02:30:09.933Z,988.73
2016-03-07T02:31:09.936Z,988.7
2016-03-07T02:32:09.953Z,988.7
2016-03-07T02:33:09.988Z,988.68
2016-03-07T02:34:09.990Z,988.69
2016-03-07T02:35:10.008Z,988.7
2016-03-07T02:36:10.027Z,988.69
2016-03-07T02:37:10.030Z,988.69
2016-03-07T02:38:10.048Z,988.67
2016-03-07T02:39:10.066Z,988.68
2016-03-07T02:40:10.085Z,988.66
2016-03-07T02:41:10.102Z,988.69
2016-03-07T02:42:10.121Z,988.71
2016-03-07T02:43:10.140Z,988.71
2016-03-07T02:44:10.157Z,988.75
2016-03-07T02:45:10.161Z,988.69
2016-03-07T02:46:10.179Z,988.73
2016-03-07T02:47:10.197Z,988.72
2016-03-07T02:48:10.215Z,988.76
2016-03-07T02:49:10.234Z,988.79
2016-03-07T02:50:10.252Z,988.81
2016-03-07T02:51:10.270Z,988.81
2016-03-07T02:52:10.289Z,988.83
2016-03-07T02:53:10.292Z,988.82
2016-03-07T02:54:10.310Z,988.83
2016-03-07T02:55:10.328Z,988.88
2016-03-07T02:56:10.346Z,988.89
2016-03-07T02:57:10.364Z,988.86
2016-03-07T02:58:10.367Z,988.87
2016-03-07T02:59:10.386Z,988.9
2016-03-07T03:00:10.419Z,988.89
2016-03-07T03:01:10.423Z,988.88
2016-03-07T03:02:10.441Z,988.89
2016-03-07T03:03:10.459Z,988.92
2016-03-07T03:04:10.477Z,988.91
2016-03-07T03:05:10.495Z,988.92
2016-03-07T03:06:10.498Z,988.93
2016-03-07T03:07:10.516Z,988.93
2016-03-07T03:08:10.535Z,988.93
2016-03-07T03:09:10.553Z,988.95
2016-03-07T03:10:10.572Z,988.93
2016-03-07T03:11:10.590Z,988.95
2016-03-07T03:12:10.608Z,988.97
2016-03-07T03:13:10.627Z,988.99
2016-03-07T03:14:10.629Z,989.01
2016-03-07T03:15:10.647Z,989
2016-03-07T03:16:10.665Z,989.01
2016-03-07T03:17:10.685Z,989.03
2016-03-07T03:18:10.702Z,989.03
2016-03-07T03:19:10.705Z,989.03
2016-03-07T03:20:10.723Z,989.03
2016-03-07T03:21:10.742Z,989.04
2016-03-07T03:22:10.760Z,989.07
2016-03-07T03:23:10.778Z,989.08
2016-03-07T03:24:10.796Z,989.09
2016-03-07T03:25:10.815Z,989.06
2016-03-07T03:26:10.818Z,989.11
2016-03-07T03:27:10.836Z,989.07
2016-03-07T03:28:10.854Z,989.14
2016-03-07T03:29:10.873Z,989.11
2016-03-07T03:30:10.891Z,989.09
2016-03-07T03:31:10.909Z,989.1
2016-03-07T03:32:10.927Z,989.1
2016-03-07T03:33:10.930Z,989.12
2016-03-07T03:34:10.948Z,989.13
2016-03-07T03:35:10.983Z,989.06
2016-03-07T03:36:10.986Z,989.12
2016-03-07T03:37:11.003Z,989.13
2016-03-07T03:38:11.022Z,989.11
2016-03-07T03:39:11.024Z,989.17
2016-03-07T03:40:11.043Z,989.16
2016-03-07T03:41:11.061Z,989.14
2016-03-07T03:42:11.080Z,989.19
2016-03-07T03:43:11.097Z,989.19
2016-03-07T03:44:11.116Z,989.2
2016-03-07T03:45:11.135Z,989.25
2016-03-07T03:46:11.152Z,989.26
2016-03-07T03:47:11.155Z,989.25
2016-03-07T03:48:11.173Z,989.26
2016-03-07T03:49:11.192Z,989.25
2016-03-07T03:50:11.210Z,989.26
2016-03-07T03:51:11.229Z,989.27
2016-03-07T03:52:11.246Z,989.28
2016-03-07T03:53:11.265Z,989.24
2016-03-07T03:54:11.267Z,989.26
2016-03-07T03:55:11.286Z,989.27
2016-03-07T03:56:11.304Z,989.29
2016-03-07T03:57:11.323Z,989.3
2016-03-07T03:58:11.341Z,989.3
2016-03-07T03:59:11.360Z,989.31
2016-03-07T04:00:11.378Z,989.32
2016-03-07T04:01:11.381Z,989.32
2016-03-07T04:02:11.398Z,989.33
2016-03-07T04:03:11.417Z,989.35
2016-03-07T04:04:11.435Z,989.37
2016-03-07T04:05:11.454Z,989.38
2016-03-07T04:06:11.472Z,989.4
2016-03-07T04:07:11.475Z,989.41
2016-03-07T04:08:11.508Z,989.47
2016-03-07T04:09:11.511Z,989.42
2016-03-07T04:10:11.530Z,989.48
2016-03-07T04:11:11.548Z,989.47
2016-03-07T04:12:11.566Z,989.49
2016-03-07T04:13:11.585Z,989.5
2016-03-07T04:14:11.603Z,989.51
2016-03-07T04:15:11.606Z,989.51
2016-03-07T04:16:11.624Z,989.56
2016-03-07T04:17:11.642Z,989.56
2016-03-07T04:18:11.660Z,989.57
2016-03-07T04:19:11.679Z,989.6
2016-03-07T04:20:11.697Z,989.61
2016-03-07T04:21:11.699Z,989.64
2016-03-07T04:22:11.718Z,989.64
2016-03-07T04:23:11.736Z,989.65
2016-03-07T04:24:11.754Z,989.59
2016-03-07T04:25:11.773Z,989.67
2016-03-07T04:26:11.792Z,989.69
2016-03-07T04:27:11.794Z,989.67
2016-03-07T04:28:11.813Z,989.72
2016-03-07T04:29:11.831Z,989.67
2016-03-07T04:30:11.849Z,989.67
2016-03-07T04:31:11.867Z,989.72
2016-03-07T04:32:11.886Z,989.74
2016-03-07T04:33:11.903Z,989.71
2016-03-07T04:34:11.907Z,989.66
2016-03-07T04:35:11.925Z,989.7
2016-03-07T04:36:11.946Z,989.68
2016-03-07T04:37:11.964Z,989.7
2016-03-07T04:38:11.984Z,989.7
2016-03-07T04:39:12.001Z,989.7
2016-03-07T04:40:12.004Z,989.69
2016-03-07T04:41:12.026Z,989.67
2016-03-07T04:42:12.045Z,989.67
2016-03-07T04:43:12.062Z,989.74
2016-03-07T04:44:12.191Z,989.72
2016-03-07T04:45:12.084Z,989.73
2016-03-07T04:46:12.102Z,989.7
2016-03-07T04:47:12.120Z,989.72
2016-03-07T04:48:12.139Z,989.72
2016-03-07T04:49:12.157Z,989.73
2016-03-07T04:50:12.176Z,989.71
2016-03-07T04:51:12.178Z,989.74
2016-03-07T04:52:12.197Z,989.75
2016-03-07T04:53:12.215Z,989.73
2016-03-07T04:54:12.233Z,989.78
2016-03-07T04:55:12.251Z,989.79
2016-03-07T04:56:12.269Z,989.77
2016-03-07T04:57:12.288Z,989.78
2016-03-07T04:58:12.291Z,989.78
2016-03-07T04:59:12.341Z,989.81
2016-03-07T05:00:12.327Z,989.83
2016-03-07T05:01:12.346Z,989.83
2016-03-07T05:02:12.364Z,989.85
2016-03-07T05:03:12.366Z,989.84
2016-03-07T05:04:12.400Z,989.84
2016-03-07T05:05:12.402Z,989.82
2016-03-07T05:06:12.429Z,989.82
2016-03-07T05:07:12.432Z,989.85
2016-03-07T05:08:12.450Z,989.9
2016-03-07T05:09:12.469Z,989.91
2016-03-07T05:10:12.487Z,989.89
2016-03-07T05:11:12.505Z,989.93
2016-03-07T05:12:12.524Z,990.01
2016-03-07T05:13:12.526Z,990.01
2016-03-07T05:14:12.591Z,990.06
2016-03-07T05:15:12.562Z,990.06
2016-03-07T05:16:12.581Z,990.11
2016-03-07T05:17:12.599Z,990.13
2016-03-07T05:18:12.618Z,990.17
2016-03-07T05:19:12.636Z,990.15
2016-03-07T05:20:12.654Z,990.16
2016-03-07T05:21:12.656Z,990.19
2016-03-07T05:22:12.675Z,990.21
2016-03-07T05:23:12.694Z,990.22
2016-03-07T05:24:12.712Z,990.25
2016-03-07T05:25:12.714Z,990.24
2016-03-07T05:26:12.733Z,990.25
2016-03-07T05:27:12.751Z,990.25
2016-03-07T05:28:12.770Z,990.29
2016-03-07T05:29:12.788Z,990.32
2016-03-07T05:30:12.806Z,990.34
2016-03-07T05:31:12.824Z,990.34
2016-03-07T05:32:12.844Z,990.34
2016-03-07T05:33:12.846Z,990.35
2016-03-07T05:34:12.864Z,990.4
2016-03-07T05:35:12.882Z,990.39
2016-03-07T05:36:12.900Z,990.35
2016-03-07T05:37:12.919Z,990.42
2016-03-07T05:38:12.922Z,990.39
2016-03-07T05:39:12.940Z,990.41
2016-03-07T05:40:12.958Z,990.42
2016-03-07T05:41:12.977Z,990.41
2016-03-07T05:42:12.995Z,990.41
2016-03-07T05:43:13.013Z,990.43
2016-03-07T05:44:13.031Z,990.39
2016-03-07T05:45:13.049Z,990.44
2016-03-07T05:46:13.052Z,990.46
2016-03-07T05:47:13.071Z,990.47
2016-03-07T05:48:13.089Z,990.49
2016-03-07T05:49:13.107Z,990.51
2016-03-07T05:50:13.125Z,990.56
2016-03-07T05:51:13.129Z,990.55
2016-03-07T05:52:13.147Z,990.59
2016-03-07T05:53:13.165Z,990.61
2016-03-07T05:54:13.183Z,990.67
2016-03-07T05:55:13.202Z,990.64
2016-03-07T05:56:13.220Z,990.67
2016-03-07T05:57:13.223Z,990.67
2016-03-07T05:58:13.241Z,990.68
2016-03-07T05:59:13.322Z,990.68
2016-03-07T06:00:13.278Z,990.68
2016-03-07T06:01:13.297Z,990.7
2016-03-07T06:02:13.314Z,990.73
2016-03-07T06:03:13.317Z,990.73
2016-03-07T06:04:13.335Z,990.76
2016-03-07T06:05:13.353Z,990.77
2016-03-07T06:06:13.372Z,990.76
2016-03-07T06:07:13.374Z,990.78
2016-03-07T06:08:13.393Z,990.82
2016-03-07T06:09:13.411Z,990.84
2016-03-07T06:10:13.430Z,990.86
2016-03-07T06:11:13.494Z,990.84
2016-03-07T06:12:13.466Z,990.87
2016-03-07T06:13:13.484Z,990.87
2016-03-07T06:14:13.487Z,990.85
2016-03-07T06:15:13.505Z,990.83
2016-03-07T06:16:13.524Z,990.82
2016-03-07T06:17:13.542Z,990.83
2016-03-07T06:18:13.560Z,990.8
2016-03-07T06:19:13.562Z,990.82
2016-03-07T06:20:13.598Z,990.79
2016-03-07T06:21:13.600Z,990.84
2016-03-07T06:22:13.618Z,990.87
2016-03-07T06:23:13.636Z,990.88
2016-03-07T06:24:13.655Z,990.9
2016-03-07T06:25:13.657Z,990.92
2016-03-07T06:26:13.676Z,990.94
2016-03-07T06:27:13.694Z,991
2016-03-07T06:28:13.712Z,990.98
2016-03-07T06:29:13.731Z,991
2016-03-07T06:30:13.734Z,991.01
2016-03-07T06:31:13.767Z,991.06
2016-03-07T06:32:13.770Z,991.1
2016-03-07T06:33:13.788Z,991.09
2016-03-07T06:34:13.806Z,991.13
2016-03-07T06:35:13.825Z,991.13
2016-03-07T06:36:13.827Z,991.16
2016-03-07T06:37:13.846Z,991.17
2016-03-07T06:38:13.864Z,991.15
2016-03-07T06:39:13.883Z,991.19
2016-03-07T06:40:13.901Z,991.21
2016-03-07T06:41:13.919Z,991.22
2016-03-07T06:42:13.921Z,991.22
2016-03-07T06:43:13.941Z,991.26
2016-03-07T06:44:13.974Z,991.28
2016-03-07T06:45:13.993Z,991.31
2016-03-07T06:46:13.995Z,991.29
2016-03-07T06:47:14.013Z,991.33
2016-03-07T06:48:14.015Z,991.37
2016-03-07T06:49:14.035Z,991.36
2016-03-07T06:50:14.053Z,991.38
2016-03-07T06:51:14.071Z,991.36
2016-03-07T06:52:14.090Z,991.37
2016-03-07T06:53:14.093Z,991.36
2016-03-07T06:54:14.110Z,991.42
2016-03-07T06:55:14.129Z,991.41
2016-03-07T06:56:14.147Z,991.43
2016-03-07T06:57:14.160Z,991.43
2016-03-07T06:58:14.164Z,991.45
2016-03-07T06:59:14.152Z,991.46
2016-03-07T07:00:14.156Z,991.47
2016-03-07T07:01:14.159Z,991.47
2016-03-07T07:02:14.167Z,991.47
2016-03-07T07:03:14.179Z,991.49
2016-03-07T07:04:14.176Z,991.51
2016-03-07T07:05:14.190Z,991.54
2016-03-07T07:06:14.452Z,991.53
2016-03-07T07:07:14.216Z,991.59
2016-03-07T07:08:14.233Z,991.59
2016-03-07T07:09:14.234Z,991.64
2016-03-07T07:10:14.251Z,991.65
2016-03-07T07:11:14.267Z,991.67
2016-03-07T07:12:14.284Z,991.67
2016-03-07T07:13:14.301Z,991.68
2016-03-07T07:14:14.319Z,991.67
2016-03-07T07:15:14.322Z,991.66
2016-03-07T07:16:14.340Z,991.66
2016-03-07T07:17:14.362Z,991.69
2016-03-07T07:18:14.380Z,991.7
2016-03-07T07:19:14.383Z,991.68
2016-03-07T07:20:14.401Z,991.67
2016-03-07T07:21:14.419Z,991.68
2016-03-07T07:22:14.437Z,991.67
2016-03-07T07:23:14.454Z,991.69
2016-03-07T07:24:14.474Z,991.68
2016-03-07T07:25:14.476Z,991.71
2016-03-07T07:26:14.495Z,991.72
2016-03-07T07:27:14.512Z,991.74
2016-03-07T07:28:14.531Z,991.74
2016-03-07T07:29:14.548Z,991.77
2016-03-07T07:30:14.551Z,991.76
2016-03-07T07:31:14.570Z,991.74
2016-03-07T07:32:14.589Z,991.71
2016-03-07T07:33:14.607Z,991.67
2016-03-07T07:34:14.625Z,991.76
2016-03-07T07:35:14.644Z,991.7
2016-03-07T07:36:14.662Z,991.7
2016-03-07T07:37:14.742Z,991.63
2016-03-07T07:38:14.698Z,991.64
2016-03-07T07:39:14.701Z,991.66
2016-03-07T07:40:14.719Z,991.66
2016-03-07T07:41:14.738Z,991.62
2016-03-07T07:42:14.740Z,991.65
2016-03-07T07:43:14.775Z,991.65
2016-03-07T07:44:14.777Z,991.66
2016-03-07T07:45:14.796Z,991.65
2016-03-07T07:46:14.813Z,991.66
2016-03-07T07:47:14.833Z,991.67
2016-03-07T07:48:14.835Z,991.7
2016-03-07T07:49:14.853Z,991.73
2016-03-07T07:50:14.871Z,991.68
2016-03-07T07:51:14.890Z,991.68
2016-03-07T07:52:14.907Z,991.67
2016-03-07T07:53:14.926Z,991.7
2016-03-07T07:54:14.944Z,991.71
2016-03-07T07:55:14.947Z,991.69
2016-03-07T07:56:14.965Z,991.66
2016-03-07T07:57:14.984Z,991.66
2016-03-07T07:58:15.002Z,991.68
2016-03-07T07:59:15.020Z,991.71
2016-03-07T08:00:15.039Z,991.71
2016-03-07T08:01:15.042Z,991.69
2016-03-07T08:02:15.060Z,991.72
2016-03-07T08:03:15.078Z,991.73
2016-03-07T08:04:15.097Z,991.72
2016-03-07T08:05:15.114Z,991.7
2016-03-07T08:06:15.133Z,991.72
2016-03-07T08:07:15.150Z,991.74
2016-03-07T08:08:15.153Z,991.75
2016-03-07T08:09:15.172Z,991.74
2016-03-07T08:10:15.191Z,991.75
2016-03-07T08:11:15.208Z,991.76
2016-03-07T08:12:15.228Z,991.74
2016-03-07T08:13:15.246Z,991.73
2016-03-07T08:14:15.249Z,991.78
2016-03-07T08:15:15.267Z,991.81
2016-03-07T08:16:18.300Z,991.81
2016-03-07T08:17:15.303Z,991.78
2016-03-07T08:18:15.321Z,991.79
2016-03-07T08:19:15.340Z,991.74
2016-03-07T08:20:15.358Z,991.75
2016-03-07T08:21:15.360Z,991.72
2016-03-07T08:22:15.395Z,991.69
2016-03-07T08:23:15.397Z,991.72
2016-03-07T08:24:15.415Z,991.76
2016-03-07T08:25:15.434Z,991.69
2016-03-07T08:26:15.452Z,991.74
2016-03-07T08:27:15.455Z,991.75
2016-03-07T08:28:15.474Z,991.77
2016-03-07T08:29:15.492Z,991.77
2016-03-07T08:30:15.510Z,991.76
2016-03-07T08:31:15.528Z,991.74
2016-03-07T08:32:15.547Z,991.74
2016-03-07T08:33:15.550Z,991.74
2016-03-07T08:34:15.567Z,991.73
2016-03-07T08:35:15.586Z,991.7
2016-03-07T08:36:15.604Z,991.73
2016-03-07T08:37:15.622Z,991.74
2016-03-07T08:38:15.641Z,991.69
2016-03-07T08:39:15.659Z,991.7
2016-03-07T08:40:15.677Z,991.68
2016-03-07T08:41:15.681Z,991.62
2016-03-07T08:42:15.714Z,991.67
2016-03-07T08:43:15.717Z,991.65
2016-03-07T08:44:15.735Z,991.64
2016-03-07T08:45:15.753Z,991.61
2016-03-07T08:46:15.756Z,991.68
2016-03-07T08:47:15.775Z,991.66
2016-03-07T08:48:15.808Z,991.68
2016-03-07T08:49:15.810Z,991.72
2016-03-07T08:50:15.830Z,991.67
2016-03-07T08:51:15.848Z,991.71
2016-03-07T08:52:15.866Z,991.68
2016-03-07T08:53:15.868Z,991.75
2016-03-07T08:54:15.902Z,991.72
2016-03-07T08:55:15.921Z,991.69
2016-03-07T08:56:15.923Z,991.7
2016-03-07T08:57:15.957Z,991.73
2016-03-07T08:58:15.976Z,991.74
2016-03-07T08:59:15.979Z,991.77
2016-03-07T09:00:15.997Z,991.79
2016-03-07T09:01:16.015Z,991.79
2016-03-07T09:02:16.017Z,991.79
2016-03-07T09:03:16.037Z,991.79
2016-03-07T09:04:16.054Z,991.78
2016-03-07T09:05:16.073Z,991.83
2016-03-07T09:06:16.092Z,991.79
2016-03-07T09:07:16.109Z,991.82
2016-03-07T09:08:16.112Z,991.82
2016-03-07T09:09:16.130Z,991.81
2016-03-07T09:10:16.149Z,991.85
2016-03-07T09:11:16.167Z,991.86
2016-03-07T09:12:16.358Z,991.86
2016-03-07T09:13:16.203Z,991.86
2016-03-07T09:14:16.222Z,991.89
2016-03-07T09:15:16.241Z,991.88
2016-03-07T09:16:16.243Z,991.89
2016-03-07T09:17:16.261Z,991.88
2016-03-07T09:18:16.280Z,991.86
2016-03-07T09:19:16.299Z,991.86
2016-03-07T09:20:16.316Z,991.85
2016-03-07T09:21:16.335Z,991.92
2016-03-07T09:22:16.353Z,991.9
2016-03-07T09:23:16.372Z,991.94
2016-03-07T09:24:16.373Z,991.91
2016-03-07T09:25:16.392Z,991.89
2016-03-07T09:26:16.410Z,991.93
2016-03-07T09:27:16.429Z,991.94
2016-03-07T09:28:16.447Z,991.93
2016-03-07T09:29:16.465Z,991.9
2016-03-07T09:30:16.484Z,991.9
2016-03-07T09:31:16.502Z,991.93
2016-03-07T09:32:16.520Z,991.93
2016-03-07T09:33:16.539Z,991.91
2016-03-07T09:34:16.542Z,991.91
2016-03-07T09:35:16.560Z,991.95
2016-03-07T09:36:16.578Z,991.93
2016-03-07T09:37:16.596Z,991.94
2016-03-07T09:38:16.614Z,991.92
2016-03-07T09:39:16.633Z,991.9
2016-03-07T09:40:16.651Z,991.96
2016-03-07T09:41:16.670Z,991.95
2016-03-07T09:42:16.689Z,991.91
2016-03-07T09:43:16.722Z,991.91
2016-03-07T09:44:16.709Z,991.92
2016-03-07T09:45:16.728Z,991.91
2016-03-07T09:46:16.746Z,991.94
2016-03-07T09:47:16.764Z,991.95
2016-03-07T09:48:16.782Z,991.93
2016-03-07T09:49:16.800Z,991.91
2016-03-07T09:50:16.818Z,991.95
2016-03-07T09:51:16.837Z,991.91
2016-03-07T09:52:16.855Z,991.89
2016-03-07T09:53:16.874Z,991.91
2016-03-07T09:54:16.893Z,991.93
2016-03-07T09:55:16.910Z,991.91
2016-03-07T09:56:16.913Z,991.93
2016-03-07T09:57:16.932Z,991.95
2016-03-07T09:58:16.950Z,991.91
2016-03-07T09:59:16.984Z,991.91
2016-03-07T10:00:16.987Z,991.92
2016-03-07T10:01:17.005Z,991.93
2016-03-07T10:02:17.023Z,991.89
2016-03-07T10:03:17.041Z,991.93
2016-03-07T10:04:17.059Z,991.95
2016-03-07T10:05:17.093Z,991.92
2016-03-07T10:06:17.113Z,991.94
2016-03-07T10:07:17.115Z,991.92
2016-03-07T10:08:17.134Z,991.95
2016-03-07T10:09:17.152Z,991.95
2016-03-07T10:10:17.170Z,991.9
2016-03-07T10:11:17.189Z,991.95
2016-03-07T10:12:17.207Z,991.96
2016-03-07T10:13:17.225Z,991.95
2016-03-07T10:14:17.243Z,991.94
2016-03-07T10:15:17.262Z,991.94
2016-03-07T10:16:17.281Z,991.98
2016-03-07T10:17:17.299Z,991.92
2016-03-07T10:18:17.318Z,991.93
2016-03-07T10:19:17.321Z,991.96
2016-03-07T10:20:17.340Z,991.96
2016-03-07T10:21:17.357Z,991.93
2016-03-07T10:22:17.376Z,991.97
2016-03-07T10:23:17.393Z,991.93
2016-03-07T10:24:17.429Z,991.95
2016-03-07T10:25:17.431Z,991.97
2016-03-07T10:26:17.449Z,991.93
2016-03-07T10:27:17.483Z,991.95
2016-03-07T10:28:17.501Z,991.96
2016-03-07T10:29:17.520Z,991.97
2016-03-07T10:30:17.538Z,991.99
2016-03-07T10:31:17.556Z,992.03
2016-03-07T10:32:17.559Z,992
2016-03-07T10:33:17.578Z,992
2016-03-07T10:34:17.611Z,992
2016-03-07T10:35:17.630Z,992.02
2016-03-07T10:36:17.647Z,992.02
2016-03-07T10:37:17.666Z,991.99
2016-03-07T10:38:17.684Z,992.05
2016-03-07T10:39:17.703Z,992.06
2016-03-07T10:40:17.721Z,992.05
2016-03-07T10:41:17.739Z,992.06
2016-03-07T10:42:17.758Z,992.08
2016-03-07T10:43:17.776Z,992.06
2016-03-07T10:44:17.794Z,992.07
2016-03-07T10:45:17.813Z,992.09
2016-03-07T10:46:17.831Z,992.09
2016-03-07T10:47:17.849Z,992.1
2016-03-07T10:48:17.868Z,992.14
2016-03-07T10:49:17.886Z,992.11
2016-03-07T10:50:17.904Z,992.13
2016-03-07T10:51:17.923Z,992.11
2016-03-07T10:52:17.941Z,992.08
2016-03-07T10:53:17.959Z,992.13
2016-03-07T10:54:17.977Z,992.11
2016-03-07T10:55:18.011Z,992.12
2016-03-07T10:56:18.015Z,992.09
2016-03-07T10:57:18.048Z,992.14
2016-03-07T10:58:18.051Z,992.13
2016-03-07T10:59:18.084Z,992.15
2016-03-07T11:00:18.409Z,992.12
2016-03-07T11:01:18.114Z,992.15
2016-03-07T11:02:18.131Z,992.16
2016-03-07T11:03:22.244Z,992.13
2016-03-07T11:04:18.168Z,992.12
2016-03-07T11:05:18.186Z,992.07
2016-03-07T11:06:18.204Z,992.09
2016-03-07T11:07:18.238Z,992.12
2016-03-07T11:08:18.241Z,992.12
2016-03-07T11:09:18.275Z,992.11
2016-03-07T11:10:18.278Z,992.09
2016-03-07T11:11:18.312Z,992.1
2016-03-07T11:12:18.330Z,992.11
2016-03-07T11:13:18.349Z,992.1
2016-03-07T11:14:18.366Z,992.12
2016-03-07T11:15:18.384Z,992.12
2016-03-07T11:16:18.403Z,992.09
2016-03-07T11:17:18.421Z,992.12
2016-03-07T11:18:18.440Z,992.09
2016-03-07T11:19:18.458Z,992.09
2016-03-07T11:20:18.476Z,992.1
2016-03-07T11:21:18.495Z,992.09
2016-03-07T11:22:18.512Z,992.08
2016-03-07T11:23:18.532Z,992.1
2016-03-07T11:24:18.565Z,992.11
2016-03-07T11:25:18.583Z,992.13
2016-03-07T11:26:18.586Z,992.13
2016-03-07T11:27:18.605Z,992.07
2016-03-07T11:28:18.638Z,992.15
2016-03-07T11:29:18.656Z,992.1
2016-03-07T11:30:18.675Z,992.14
2016-03-07T11:31:18.694Z,992.14
2016-03-07T11:32:18.711Z,992.14
2016-03-07T11:33:18.730Z,992.16
2016-03-07T11:34:18.749Z,992.13
2016-03-07T11:35:18.766Z,992.09
2016-03-07T11:36:18.785Z,992.09
2016-03-07T11:37:18.803Z,992.16
2016-03-07T11:38:18.822Z,992.13
2016-03-07T11:39:18.840Z,992.15
2016-03-07T11:40:18.857Z,992.17
2016-03-07T11:41:18.893Z,992.12
2016-03-07T11:42:18.910Z,992.18
2016-03-07T11:43:18.929Z,992.19
2016-03-07T11:44:18.946Z,992.19
2016-03-07T11:45:18.966Z,992.15
2016-03-07T11:46:18.984Z,992.16
2016-03-07T11:47:19.001Z,992.15
2016-03-07T11:48:19.021Z,992.16
2016-03-07T11:49:19.054Z,992.1
2016-03-07T11:50:19.056Z,992.08
2016-03-07T11:51:19.091Z,992.08
2016-03-07T11:52:19.110Z,992.12
2016-03-07T11:53:19.128Z,992.08
2016-03-07T11:54:19.145Z,992.06
2016-03-07T11:55:19.164Z,992.09
2016-03-07T11:56:19.183Z,992.1
2016-03-07T11:57:19.200Z,992.1
2016-03-07T11:58:19.219Z,992.13
2016-03-07T11:59:19.237Z,992.15
2016-03-07T12:00:19.272Z,992.14
2016-03-07T12:01:19.275Z,992.14
2016-03-07T12:02:19.308Z,992.11
2016-03-07T12:03:19.327Z,992.13
2016-03-07T12:04:19.344Z,992.14
2016-03-07T12:05:19.363Z,992.14
2016-03-07T12:06:19.384Z,992.13
2016-03-07T12:07:19.400Z,992.12
2016-03-07T12:08:19.418Z,992.11
2016-03-07T12:09:19.435Z,992.15
2016-03-07T12:10:19.455Z,992.13
2016-03-07T12:11:19.488Z,992.16
2016-03-07T12:12:19.506Z,992.14
2016-03-07T12:13:19.524Z,992.17
2016-03-07T12:14:19.543Z,992.22
2016-03-07T12:15:19.561Z,992.16
2016-03-07T12:16:19.579Z,992.16
2016-03-07T12:17:19.599Z,992.16
2016-03-07T12:18:19.617Z,992.17
2016-03-07T12:19:19.634Z,992.17
2016-03-07T12:20:19.668Z,992.21
2016-03-07T12:21:19.687Z,992.22
2016-03-07T12:22:19.706Z,992.2
2016-03-07T12:23:19.723Z,992.15
2016-03-07T12:24:19.742Z,992.15
2016-03-07T12:25:19.761Z,992.11
2016-03-07T12:26:19.794Z,992.12
2016-03-07T12:27:19.812Z,992.16
2016-03-07T12:28:19.831Z,992.14
2016-03-07T12:29:19.850Z,992.09
2016-03-07T12:30:19.868Z,992.14
2016-03-07T12:31:19.886Z,992.17
2016-03-07T12:32:19.905Z,992.18
2016-03-07T12:33:19.922Z,992.16
2016-03-07T12:34:19.956Z,992.18
2016-03-07T12:35:19.975Z,992.17
2016-03-07T12:36:19.993Z,992.19
2016-03-07T12:37:20.011Z,992.22
2016-03-07T12:38:20.030Z,992.2
2016-03-07T12:39:20.048Z,992.17
2016-03-07T12:40:20.082Z,992.21
2016-03-07T12:41:20.100Z,992.19
2016-03-07T12:42:20.119Z,992.19
2016-03-07T12:43:20.137Z,992.2